Flight Track Log - Related Links

Times and Time Zones

All times are in EDT time to prevent confusion due to time zone crossing. See the N143DE flight status page for this flight to view local times or setup timezone preferences in your user account.

Time Position Orientation Groundspeed Altitude Reporting Facility
EDT Latitude Longitude Course Direction KTS MPH feet Rate Location/Type
Tue 09:05:00 AM 26.0725 -80.1481 61° Northeast 94 108 800  Level Miami Center
Tue 09:05:43 AM 26.0858 -80.1208 61° Northeast 147 169 2,300 1,473 Climbing Miami Center
Tue 09:06:50 AM 26.1117 -80.0797 55° Northeast 165 190 3,500 1,119 Climbing Miami Center
Tue 09:07:57 AM 26.1597 -80.0858 353° North 179 206 4,800 703 Climbing Miami Center
Tue 09:08:58 AM 26.2069 -80.1194 327° Northwest 210 242 5,000 54 Climbing Miami Center
Tue 09:09:49 AM 26.2500 -80.1483 329° Northwest 216 249 4,900  Descending Miami Center
Tue 09:09:53 AM 26.2519 -80.1556 287° West 217 250 5,000 1,729 Climbing Miami Center
Tue 09:10:48 AM 26.2994 -80.1844 331° Northwest 217 250 6,600 1,770 Climbing Miami Center
Tue 09:10:54 AM 26.3033 -80.1917 301° West 211 243 6,800 1,180 Climbing Miami Center
Tue 09:11:49 AM 26.3506 -80.2325 322° Northwest 206 237 7,800 1,161 Climbing Miami Center
Tue 09:11:56 AM 26.3486 -80.2322 173° South 207 238 8,000 1,424 Climbing Miami Center
Tue 09:12:48 AM 26.3894 -80.2706 320° Northwest 229 264 9,200 1,286 Climbing Miami Center
Tue 09:13:48 AM 26.4386 -80.3067 327° Northwest 224 258 10,400 1,200 Climbing Miami Center
Tue 09:14:48 AM 26.4900 -80.3383 331° Northwest 213 245 11,600 1,140 Climbing Miami Center
Tue 09:15:49 AM 26.5467 -80.3308 North 198 228 12,700 1,100 Climbing Miami Center
Tue 09:16:48 AM 26.6117 -80.3211 North 222 255 13,800 1,008 Climbing Miami Center
Tue 09:17:48 AM 26.6700 -80.3206 360° North 217 250 14,700 1,000 Climbing Miami Center
Tue 09:18:48 AM 26.7258 -80.3456 338° Northwest 217 250 15,800 1,000 Climbing Miami Center
Tue 09:19:48 AM 26.7819 -80.3633 344° North 212 244 16,700 950 Climbing Miami Center
Tue 09:20:48 AM 26.8378 -80.3861 340° North 210 242 17,700 900 Climbing Miami Center
Tue 09:21:48 AM 26.8850 -80.4178 329° Northwest 204 235 18,500 800 Climbing Miami Center
Tue 09:22:48 AM 26.9344 -80.4447 334° Northwest 199 229 19,300 893 Climbing Miami Center
Tue 09:23:49 AM 26.9839 -80.4719 334° Northwest 194 223 20,300 850 Climbing Miami Center
Tue 09:24:48 AM 27.0314 -80.4967 335° Northwest 194 223 21,000 655 Climbing Miami Center
Tue 09:25:48 AM 27.0767 -80.5217 334° Northwest 194 223 21,600 550 Climbing Miami Center
Tue 09:26:48 AM 27.1261 -80.5489 334° Northwest 194 223 22,100 450 Climbing Miami Center
Tue 09:27:48 AM 27.1733 -80.5758 333° Northwest 194 223 22,500 446 Climbing Miami Center
Tue 09:28:49 AM 27.2228 -80.6056 332° Northwest 194 223 23,000 250 Climbing Miami Center
Tue 09:29:48 AM 27.2783 -80.6331 336° Northwest 199 229 23,000  Level Miami Center
Tue 09:30:48 AM 27.3358 -80.6653 334° Northwest 211 243 23,000  Level Miami Center
Tue 09:31:48 AM 27.3917 -80.6928 336° Northwest 217 250 23,000  Level Miami Center
Tue 09:32:48 AM 27.4492 -80.7275 332° Northwest 217 250 23,000  Level Miami Center
Tue 09:33:49 AM 27.5067 -80.7575 335° Northwest 217 250 23,000  Level Miami Center
Tue 09:34:48 AM 27.5581 -80.7875 333° Northwest 222 255 23,000  Level Miami Center
Tue 09:35:48 AM 27.6200 -80.8178 337° Northwest 228 262 23,000  Level Miami Center
Tue 09:36:48 AM 27.6775 -80.8525 332° Northwest 234 269 23,000  Level Miami Center
Tue 09:37:48 AM 27.7331 -80.8825 334° Northwest 234 269 23,000  Level Miami Center
Tue 09:38:48 AM 27.7947 -80.9175 333° Northwest 234 269 23,000  Level Miami Center
Tue 09:39:49 AM 27.8522 -80.9456 337° Northwest 234 269 23,000  Level Miami Center
Tue 09:40:48 AM 27.9075 -80.9803 331° Northwest 234 269 23,000  Level Miami Center
Tue 09:41:48 AM 27.9672 -81.0108 336° Northwest 234 269 23,000  Level Miami Center
Tue 09:42:49 AM 28.0247 -81.0458 332° Northwest 234 269 23,000  Level Miami Center
Tue 09:43:48 AM 28.0822 -81.0761 335° Northwest 234 269 23,000  Level Miami Center
Tue 09:44:48 AM 28.1439 -81.1114 333° Northwest 234 269 23,000  Level Miami Center
Tue 09:46:28 AM 28.2406 -81.1656 334° Northwest 242 278 23,000  Level Jacksonville Center
Tue 09:47:28 AM 28.2994 -81.1975 334° Northwest 236 272 23,000  Level Jacksonville Center
Tue 09:48:28 AM 28.3561 -81.2297 333° Northwest 236 272 23,000  Level Jacksonville Center
Tue 09:49:28 AM 28.4131 -81.2617 334° Northwest 230 265 23,000  Level Jacksonville Center
Tue 09:50:28 AM 28.4719 -81.2961 333° Northwest 230 265 23,000  Level Jacksonville Center
Tue 09:51:28 AM 28.5306 -81.3283 334° Northwest 225 259 23,000  Level Jacksonville Center
Tue 09:52:28 AM 28.5936 -81.3486 344° North 225 259 23,000  Level Jacksonville Center
Tue 09:53:28 AM 28.6583 -81.3594 352° North 225 259 23,000  Level Jacksonville Center
Tue 09:54:28 AM 28.7253 -81.3750 348° North 230 265 23,000  Level Jacksonville Center
Tue 09:55:28 AM 28.7900 -81.3883 350° North 236 272 23,000  Level Jacksonville Center
Tue 09:56:28 AM 28.8528 -81.4017 349° North 236 272 23,000  Level Jacksonville Center
Tue 09:57:28 AM 28.9178 -81.4194 347° North 236 272 23,000  Level Jacksonville Center
Tue 09:58:28 AM 28.9806 -81.4328 349° North 236 272 23,000  Level Jacksonville Center
Tue 09:59:28 AM 29.0475 -81.4461 350° North 236 272 23,000  Level Jacksonville Center
Tue 10:00:28 AM 29.1103 -81.4619 348° North 236 272 23,000  Level Jacksonville Center
Tue 10:01:28 AM 29.1711 -81.4753 349° North 236 272 23,000  Level Jacksonville Center
Tue 10:02:28 AM 29.2275 -81.4886 348° North 236 272 23,000  Level Jacksonville Center
Tue 10:03:28 AM 29.2903 -81.5044 348° North 236 272 23,000  Level Jacksonville Center
Tue 10:04:28 AM 29.3511 -81.5178 349° North 226 260 23,000  Level Jacksonville Center
Tue 10:05:28 AM 29.4117 -81.5314 349° North 221 254 23,000  Level Jacksonville Center
Tue 10:06:28 AM 29.4744 -81.5425 351° North 221 254 23,000  Level Jacksonville Center
Tue 10:07:28 AM 29.5331 -81.5558 349° North 221 254 23,000  Level Jacksonville Center
Tue 10:08:28 AM 29.5958 -81.5717 348° North 221 254 23,000  Level Jacksonville Center
Tue 10:09:28 AM 29.6564 -81.5853 349° North 221 254 23,000  Level Jacksonville Center
Tue 10:10:28 AM 29.7192 -81.5964 351° North 221 254 23,000  Level Jacksonville Center
Tue 10:11:28 AM 29.7800 -81.6100 349° North 221 254 23,000  Level Jacksonville Center
Tue 10:12:28 AM 29.8406 -81.6236 349° North 221 254 23,000  Level Jacksonville Center
Tue 10:13:28 AM 29.9011 -81.6372 349° North 221 254 23,000  Level Jacksonville Center
Tue 10:14:28 AM 29.9619 -81.6508 349° North 221 254 23,000  Level Jacksonville Center
Tue 10:15:28 AM 30.0225 -81.6644 349° North 221 254 23,000  Level Jacksonville Center
Tue 10:16:28 AM 30.0811 -81.6781 349° North 221 254 23,000  Level Jacksonville Center
Tue 10:17:28 AM 30.1419 -81.6917 349° North 221 254 23,000  Level Jacksonville Center
Tue 10:18:28 AM 30.2006 -81.7028 351° North 221 254 23,000  Level Jacksonville Center
Tue 10:19:28 AM 30.2611 -81.7142 351° North 221 254 23,000  Level Jacksonville Center
Tue 10:20:28 AM 30.3217 -81.7303 347° North 221 254 23,000  Level Jacksonville Center
Tue 10:21:28 AM 30.3825 -81.7417 351° North 221 254 23,000 -200 Level Jacksonville Center
Tue 10:22:28 AM 30.4453 -81.7600 346° North 221 254 22,600 -400 Descending Jacksonville Center
Tue 10:23:28 AM 30.5039 -81.7908 336° Northwest 221 254 22,200 -300 Descending Jacksonville Center
Tue 10:24:28 AM 30.5711 -81.8261 336° Northwest 238 274 22,000 -100 Descending Jacksonville Center
Tue 10:25:28 AM 30.6319 -81.8569 336° Northwest 238 274 22,000  Level Jacksonville Center
Tue 10:26:28 AM 30.6928 -81.8853 338° Northwest 238 274 22,000  Level Jacksonville Center
Tue 10:27:28 AM 30.7492 -81.9161 335° Northwest 233 268 22,000  Level Jacksonville Center
Tue 10:28:28 AM 30.8081 -81.9419 339° North 233 268 22,000  Level Jacksonville Center
Tue 10:29:28 AM 30.8686 -81.9728 336° Northwest 233 268 22,000  Level Jacksonville Center
Tue 10:30:28 AM 30.9272 -82.0014 337° Northwest 233 268 22,000  Level Jacksonville Center
Tue 10:31:28 AM 30.9839 -82.0322 335° Northwest 233 268 22,000  Level Jacksonville Center
Tue 10:32:28 AM 31.0425 -82.0608 337° Northwest 233 268 22,000  Level Jacksonville Center
Tue 10:33:28 AM 31.1014 -82.0944 334° Northwest 233 268 22,000  Level Jacksonville Center
Tue 10:34:28 AM 31.1600 -82.1206 339° North 233 268 22,000  Level Jacksonville Center
Tue 10:35:28 AM 31.2206 -82.1492 338° Northwest 233 268 22,000  Level Jacksonville Center
Tue 10:36:29 AM 31.2792 -82.1803 336° Northwest 233 268 22,000  Level Jacksonville Center
Tue 10:37:28 AM 31.3400 -82.2092 338° Northwest 238 274 22,000  Level Jacksonville Center
Tue 10:38:28 AM 31.3986 -82.2378 337° Northwest 238 274 22,000  Level Jacksonville Center
Tue 10:39:28 AM 31.4592 -82.2692 336° Northwest 233 268 22,000  Level Jacksonville Center
Tue 10:40:28 AM 31.5178 -82.2981 337° Northwest 233 268 22,000  Level Jacksonville Center
Tue 10:41:28 AM 31.5722 -82.3244 338° Northwest 232 267 22,000  Level Jacksonville Center
Tue 10:42:28 AM 31.6331 -82.3558 336° Northwest 238 274 22,000  Level Jacksonville Center
Tue 10:43:28 AM 31.6917 -82.3847 337° Northwest 238 274 22,000  Level Jacksonville Center
Tue 10:44:28 AM 31.7522 -82.4136 338° Northwest 238 274 22,000  Level Jacksonville Center
Tue 10:45:28 AM 31.8067 -82.4428 336° Northwest 233 268 22,000 -400 Level Jacksonville Center
Tue 10:46:28 AM 31.8714 -82.4767 336° Northwest 238 274 21,200 -800 Descending Jacksonville Center
Tue 10:47:28 AM 31.9383 -82.5106 337° Northwest 244 281 20,400 -600 Descending Jacksonville Center
Tue 10:48:28 AM 32.0075 -82.5447 337° Northwest 256 295 20,000 -200 Descending Jacksonville Center
Tue 10:49:28 AM 32.0722 -82.5786 336° Northwest 256 295 20,000  Level Jacksonville Center
Tue 10:50:07 AM 32.1181 -82.6067 333° Northwest 250 288 20,000  Level Atlanta Center
Tue 10:51:07 AM 32.1789 -82.6328 340° North 250 288 20,000  Level Atlanta Center
Tue 10:52:07 AM 32.2442 -82.6686 335° Northwest 256 295 20,000  Level Atlanta Center
Tue 10:53:07 AM 32.3092 -82.6994 338° Northwest 256 295 20,000  Level Atlanta Center
Tue 10:54:07 AM 32.3722 -82.7331 336° Northwest 256 295 20,000  Level Atlanta Center
Tue 10:55:07 AM 32.4392 -82.7689 336° Northwest 256 295 20,000  Level Atlanta Center
Tue 10:56:07 AM 32.5044 -82.8025 337° Northwest 251 289 20,000  Level Atlanta Center
Tue 10:57:07 AM 32.5736 -82.8383 336° Northwest 251 289 20,000  Level Atlanta Center
Tue 10:58:07 AM 32.6242 -82.8944 317° Northwest 246 283 20,000 -350 Level Atlanta Center
Tue 10:59:07 AM 32.6811 -82.9506 320° Northwest 252 290 19,300 -800 Descending Atlanta Center
Tue 11:00:07 AM 32.7400 -83.0092 320° Northwest 271 312 18,400 -850 Descending Atlanta Center
Tue 11:01:07 AM 32.7969 -83.0653 320° Northwest 271 312 17,600 -850 Descending Atlanta Center
Tue 11:02:07 AM 32.8494 -83.1192 319° Northwest 265 305 16,700 -800 Descending Atlanta Center
Tue 11:03:07 AM 32.9061 -83.1778 319° Northwest 265 305 16,000 -800 Descending Atlanta Center
Tue 11:04:07 AM 32.9631 -83.2317 322° Northwest 265 305 15,100 -1,200 Descending Atlanta Center
Tue 11:05:07 AM 33.0281 -83.3053 316° Northwest 273 314 13,600 -1,300 Descending Atlanta Center
Tue 11:06:07 AM 33.0889 -83.3644 321° Northwest 280 322 12,500 -1,050 Descending Atlanta Center
Tue 11:07:07 AM 33.1497 -83.4261 320° Northwest 290 334 11,500 -1,050 Descending Atlanta Center
Tue 11:08:07 AM 33.2106 -83.4900 319° Northwest 290 334 10,400 -1,050 Descending Atlanta Center
Tue 11:09:07 AM 33.2631 -83.5419 320° Northwest 284 327 9,400 -1,100 Descending Atlanta Center
Tue 11:10:07 AM 33.3217 -83.6039 319° Northwest 284 327 8,200 -700 Descending Atlanta Center
Tue 11:11:07 AM 33.3783 -83.6558 323° Northwest 277 319 8,000 -100 Descending Atlanta Center
Tue 11:12:07 AM 33.4347 -83.7078 322° Northwest 259 298 8,000 -550 Level Atlanta Center
Tue 11:13:07 AM 33.4914 -83.7547 325° Northwest 249 287 6,900 -727 Descending Atlanta Center
Tue 11:14:52 AM 33.6167 -83.8167 338° Northwest 245 282 6,000 -340 Descending Atlanta TRACON
Tue 11:15:46 AM 33.6667 -83.8500 331° Northwest 239 275 6,000  Level Atlanta TRACON
Tue 11:16:52 AM 33.7333 -83.8833 337° Northwest 244 281 6,000  Level Atlanta TRACON
Tue 11:17:46 AM 33.7833 -83.9167 331° Northwest 245 282 6,000  Level Atlanta TRACON
Tue 11:18:46 AM 33.8333 -83.9667 320° Northwest 244 281 6,000  Level Atlanta TRACON
Tue 11:19:46 AM 33.8833 -84.0333 312° West 245 282 6,000  Level Atlanta TRACON
Tue 11:20:46 AM 33.9167 -84.1000 301° West 243 280 6,000  Level Atlanta TRACON
Tue 11:21:40 AM 33.9500 -84.1500 309° West 242 278 6,000  Level Atlanta TRACON
Tue 11:22:40 AM 34.0000 -84.2167 312° West 228 262 6,000  Level Atlanta TRACON
Tue 11:23:40 AM 34.0167 -84.2833 287° West 224 258 6,000  Level Atlanta TRACON
Tue 11:24:40 AM 34.0167 -84.3667 270° West 220 253 6,000  Level Atlanta TRACON
Tue 11:25:34 AM 34.0333 -84.4333 287° West 220 253 6,000 -316 Level Atlanta TRACON
Tue 11:26:34 AM 34.0667 -84.4833 309° West 229 264 5,400 -900 Descending Atlanta TRACON
Tue 11:27:34 AM 34.1000 -84.5667 296° West 238 274 4,200 -750 Descending Atlanta TRACON
Tue 11:28:34 AM 34.1167 -84.6333 287° West 213 245 3,900 -158 Descending Atlanta TRACON
Tue 11:29:28 AM 34.1000 -84.6833 248° West 169 194 3,900 53 Level Atlanta TRACON
Tue 11:30:28 AM 34.1000 -84.7333 270° West 163 188 4,000 50 Climbing Atlanta TRACON
Tue 11:31:28 AM 34.1000 -84.7833 270° West 151 174 4,000 -48 Level Atlanta TRACON
Tue 11:32:34 AM 34.0833 -84.8333 248° West 164 189 3,900 -323 Descending Atlanta TRACON
Tue 11:34:34 AM 34.0167 -84.8333 180° South 141 162 3,000 -310 Descending Atlanta TRACON
Tue 11:35:28 AM 34.0167 -84.8000 90° East 118 136 3,000 -158 Level Atlanta TRACON
Tue 11:36:28 AM 34.0000 -84.7500 112° Southeast 143 165 2,700 -150 Descending Atlanta TRACON
Tue 11:37:28 AM 34.0167 -84.7167 59° Northeast 109 125 2,700 -150 Level Atlanta TRACON
Tue 11:38:28 AM 34.0167 -84.6833 90° East 125 144 2,400 -300 Descending Atlanta TRACON

Login

Don't have an account? Register now (free) for customized features, flight alerts, and more!